Time;durP1;ratioP1;P1;durP2;ratioP2;P2;SDS_P1;SDS_P2;PMS_P1;PMS_P2;Temp;Humidity;BMP_temperature;BMP_pressure;BME280_temperature;BME280_humidity;BME280_pressure;Samples;Min_cycle;Max_cycle;Signal;HPM_P1;HPM_P2
2022/06/13 00:00:01;;;;;;;3.03;1.40;;;22.20;51.30;;;;;;5055938;28;20134;-58
2022/06/13 00:02:26;;;;;;;3.60;1.42;;;22.20;51.30;;;;;;5056405;28;20460;-59
2022/06/13 00:04:52;;;;;;;3.00;1.92;;;22.20;51.40;;;;;;5057690;28;20048;-58
2022/06/13 00:07:17;;;;;;;3.58;1.80;;;22.20;51.40;;;;;;5056980;28;20473;-59
2022/06/13 00:09:43;;;;;;;1.90;1.55;;;22.20;51.40;;;;;;5059087;28;20119;-59
2022/06/13 00:12:08;;;;;;;2.83;1.70;;;22.20;51.50;;;;;;5057291;28;20095;-57
2022/06/13 00:14:34;;;;;;;3.53;1.70;;;22.20;51.60;;;;;;5055618;28;20033;-59
2022/06/13 00:17:01;;;;;;;3.45;1.80;;;22.20;51.50;;;;;;5055398;28;20048;-59
2022/06/13 00:19:26;;;;;;;3.60;1.80;;;22.20;51.50;;;;;;5056420;28;20102;-58
2022/06/13 00:21:52;;;;;;;3.25;1.63;;;22.20;51.50;;;;;;5056412;28;20056;-58
2022/06/13 00:24:18;;;;;;;2.53;1.42;;;22.20;51.50;;;;;;5059195;28;20053;-58
2022/06/13 00:26:43;;;;;;;3.17;1.75;;;22.20;51.50;;;;;;5057840;28;20036;-58
2022/06/13 00:29:09;;;;;;;2.85;1.67;;;22.20;51.50;;;;;;5056288;28;20052;-58
2022/06/13 00:31:35;;;;;;;3.08;1.75;;;22.20;51.50;;;;;;5055563;28;20036;-57
2022/06/13 00:34:01;;;;;;;4.45;1.70;;;22.20;51.50;;;;;;5057552;28;20127;-59
2022/06/13 00:36:26;;;;;;;4.25;1.95;;;22.20;51.50;;;;;;5054827;28;20041;-59
2022/06/13 00:38:55;;;;;;;3.40;1.65;;;22.20;51.60;;;;;;5054585;28;20056;-58
2022/06/13 00:41:27;;;;;;;3.75;2.03;;;22.10;51.50;;;;;;5054835;28;20342;-57
2022/06/13 00:43:54;;;;;;;3.42;1.98;;;22.20;51.60;;;;;;5053689;28;20048;-59
2022/06/13 00:46:22;;;;;;;2.03;1.55;;;22.20;51.60;;;;;;5055956;28;20127;-59
2022/06/13 00:48:52;;;;;;;4.38;2.00;;;22.20;51.60;;;;;;5056665;28;20048;-59
2022/06/13 00:51:18;;;;;;;2.33;1.55;;;22.20;51.60;;;;;;5053208;28;20036;-58
2022/06/13 00:53:44;;;;;;;2.65;1.77;;;22.10;51.60;;;;;;5052844;28;20105;-60
2022/06/13 00:56:14;;;;;;;4.50;2.08;;;22.10;51.50;;;;;;5053721;28;20043;-58
2022/06/13 00:58:52;;;;;;;3.90;1.90;;;22.10;51.60;;;;;;5055580;28;20045;-58
2022/06/13 01:01:18;;;;;;;3.88;1.83;;;22.10;51.60;;;;;;5055688;28;20037;-59
2022/06/13 01:03:44;;;;;;;2.35;1.80;;;22.10;51.60;;;;;;5055812;28;20546;-57
2022/06/13 01:06:10;;;;;;;3.72;1.80;;;22.10;51.60;;;;;;5055867;28;20082;-58
2022/06/13 01:08:38;;;;;;;2.47;1.70;;;22.10;51.70;;;;;;5056848;28;20331;-58
2022/06/13 01:11:16;;;;;;;3.78;1.80;;;22.10;51.90;;;;;;5057306;28;20036;-57
2022/06/13 01:14:03;;;;;;;2.90;1.90;;;22.10;51.90;;;;;;5053140;28;20500;-58
2022/06/13 01:16:54;;;;;;;4.28;1.90;;;22.10;51.90;;;;;;5056360;28;20094;-59
2022/06/13 01:19:22;;;;;;;2.53;1.80;;;22.10;51.90;;;;;;5053447;28;20484;-59
2022/06/13 01:21:54;;;;;;;3.05;1.80;;;22.10;51.90;;;;;;5056407;28;20053;-59
2022/06/13 01:25:04;;;;;;;4.38;1.85;;;22.10;51.90;;;;;;5054603;28;20657;-57
2022/06/13 01:28:01;;;;;;;2.78;1.90;;;22.10;52.00;;;;;;5052265;28;20037;-58
2022/06/13 01:30:55;;;;;;;2.75;1.50;;;22.10;52.00;;;;;;5034715;28;20084;-57
2022/06/13 01:34:02;;;;;;;2.28;1.67;;;22.10;52.00;;;;;;5053862;28;20439;-60
2022/06/13 01:36:45;;;;;;;1.88;1.55;;;22.10;52.10;;;;;;5030815;28;20190;-58
2022/06/13 01:39:32;;;;;;;3.30;1.95;;;22.10;52.10;;;;;;5055694;28;20032;-57
2022/06/13 01:42:10;;;;;;;5.15;2.20;;;22.10;52.10;;;;;;5054840;28;20676;-60
2022/06/13 01:44:58;;;;;;;2.85;2.10;;;22.10;52.20;;;;;;5051719;28;20037;-61
2022/06/13 01:47:37;;;;;;;2.33;1.70;;;22.10;52.30;;;;;;5053115;28;20036;-60
2022/06/13 01:50:22;;;;;;;3.55;1.70;;;22.10;52.40;;;;;;5054237;28;20072;-58
2022/06/13 01:53:15;;;;;;;2.42;1.70;;;22.10;52.30;;;;;;5054224;28;20490;-59
2022/06/13 01:55:52;;;;;;;3.67;2.10;;;22.10;52.30;;;;;;5061402;28;20061;-58
2022/06/13 01:58:38;;;;;;;2.42;1.52;;;22.10;52.30;;;;;;5055211;28;20068;-59
2022/06/13 02:01:13;;;;;;;3.17;1.83;;;22.10;52.30;;;;;;5053318;28;20554;-58
2022/06/13 02:03:46;;;;;;;3.22;1.60;;;22.10;52.40;;;;;;5055352;28;20037;-58
2022/06/13 02:06:18;;;;;;;4.57;1.83;;;22.10;52.40;;;;;;5053603;28;20068;-58
2022/06/13 02:08:51;;;;;;;2.33;1.70;;;22.10;52.40;;;;;;5054893;28;20037;-58
2022/06/13 02:11:25;;;;;;;3.28;2.00;;;22.00;52.30;;;;;;5053136;28;20469;-57
2022/06/13 02:14:08;;;;;;;2.20;1.60;;;22.10;52.30;;;;;;5055254;28;20066;-58
2022/06/13 02:16:42;;;;;;;2.67;1.65;;;22.10;52.20;;;;;;5052774;28;20135;-59
2022/06/13 02:19:16;;;;;;;4.30;2.17;;;22.10;52.30;;;;;;5053892;28;20155;-58
2022/06/13 02:21:51;;;;;;;3.25;1.77;;;22.10;52.40;;;;;;5053377;28;20065;-60
2022/06/13 02:24:19;;;;;;;3.65;1.73;;;22.10;52.40;;;;;;5051458;28;20101;-58
2022/06/13 02:26:49;;;;;;;2.83;1.85;;;22.10;52.40;;;;;;5053581;28;20404;-57
2022/06/13 02:29:21;;;;;;;4.20;1.80;;;22.10;52.40;;;;;;5054599;28;20369;-57
2022/06/13 02:32:01;;;;;;;2.92;1.95;;;22.00;52.40;;;;;;5054497;28;20048;-59
2022/06/13 02:34:34;;;;;;;2.00;1.80;;;22.10;52.50;;;;;;5054694;28;20458;-57
2022/06/13 02:37:09;;;;;;;2.67;1.70;;;22.00;52.40;;;;;;5055770;28;20036;-58
2022/06/13 02:40:00;;;;;;;2.83;1.95;;;22.00;52.50;;;;;;5055790;28;20047;-58
2022/06/13 02:42:43;;;;;;;4.07;1.50;;;22.00;52.40;;;;;;5054195;28;20342;-57
2022/06/13 02:45:42;;;;;;;3.97;1.70;;;22.10;52.60;;;;;;5054455;28;20098;-57
2022/06/13 02:48:16;;;;;;;3.38;1.98;;;22.00;52.50;;;;;;5054054;28;20032;-58
2022/06/13 02:50:52;;;;;;;2.58;1.77;;;22.00;52.60;;;;;;5055077;28;20095;-58
2022/06/13 02:53:34;;;;;;;3.92;2.10;;;22.00;52.60;;;;;;5053012;28;20107;-62
2022/06/13 02:56:06;;;;;;;3.55;2.10;;;22.00;52.60;;;;;;5055515;28;20037;-58
2022/06/13 02:58:50;;;;;;;3.65;2.05;;;22.00;52.60;;;;;;5056759;28;20036;-58
2022/06/13 03:01:35;;;;;;;2.17;1.45;;;22.00;52.60;;;;;;5053855;28;20040;-58
2022/06/13 03:04:11;;;;;;;3.58;2.17;;;22.00;52.60;;;;;;5056618;28;20041;-58
2022/06/13 03:06:50;;;;;;;4.03;1.90;;;22.00;52.70;;;;;;5052638;28;20068;-57
2022/06/13 03:09:29;;;;;;;2.33;1.85;;;22.00;52.70;;;;;;5052402;28;20059;-58
2022/06/13 03:12:52;;;;;;;2.75;1.77;;;22.00;52.70;;;;;;5054055;28;20463;-59
2022/06/13 03:15:44;;;;;;;3.55;1.75;;;22.00;52.70;;;;;;5010732;28;20085;-57
2022/06/13 03:18:27;;;;;;;4.65;2.33;;;22.00;52.70;;;;;;5053300;28;20387;-59
2022/06/13 03:21:14;;;;;;;2.95;1.88;;;22.00;52.70;;;;;;5052452;28;20090;-61
2022/06/13 03:23:45;;;;;;;3.08;1.90;;;22.00;52.70;;;;;;5037585;28;20057;-58
2022/06/13 03:26:21;;;;;;;2.95;1.70;;;22.00;52.80;;;;;;5038980;28;20128;-58
2022/06/13 03:28:56;;;;;;;3.13;1.73;;;22.00;52.70;;;;;;5037555;28;20461;-59
2022/06/13 03:31:32;;;;;;;3.17;1.90;;;22.00;52.70;;;;;;5037472;28;20033;-58
2022/06/13 03:34:05;;;;;;;3.38;1.90;;;22.00;52.70;;;;;;5037065;28;20065;-59
2022/06/13 03:36:36;;;;;;;3.08;1.70;;;22.00;52.70;;;;;;5037568;28;20044;-60
2022/06/13 03:39:12;;;;;;;3.17;1.88;;;22.00;52.80;;;;;;5038203;28;20041;-57
2022/06/13 03:41:45;;;;;;;2.97;2.22;;;22.00;52.80;;;;;;5038708;28;20047;-59
2022/06/13 03:44:16;;;;;;;2.97;2.10;;;22.00;52.80;;;;;;5036576;28;20071;-58
2022/06/13 03:46:48;;;;;;;3.38;1.80;;;22.00;52.90;;;;;;5034968;28;20045;-61
2022/06/13 03:49:27;;;;;;;4.03;1.80;;;22.00;52.90;;;;;;5038626;28;20045;-57
2022/06/13 03:51:54;;;;;;;4.35;2.13;;;22.00;52.90;;;;;;5038276;28;20177;-58
2022/06/13 03:54:23;;;;;;;3.40;1.80;;;22.00;52.90;;;;;;5037039;28;20048;-59
2022/06/13 03:57:34;;;;;;;3.00;2.05;;;22.00;53.00;;;;;;5037942;28;20079;-58
2022/06/13 04:00:23;;;;;;;3.33;1.90;;;22.00;52.90;;;;;;5029375;28;20119;-57
2022/06/13 04:02:50;;;;;;;3.45;2.10;;;22.00;53.00;;;;;;5039338;28;20040;-58
2022/06/13 04:05:42;;;;;;;3.13;2.08;;;22.00;53.10;;;;;;5038827;28;20232;-58
2022/06/13 04:08:12;;;;;;;4.68;2.40;;;22.00;53.00;;;;;;5036189;28;20048;-58
2022/06/13 04:10:59;;;;;;;3.42;2.08;;;22.00;53.00;;;;;;5037827;28;20036;-58
2022/06/13 04:13:51;;;;;;;3.25;1.88;;;22.00;53.10;;;;;;5036373;28;20041;-59
2022/06/13 04:16:36;;;;;;;2.92;2.03;;;22.00;53.10;;;;;;5036107;28;20497;-59
2022/06/13 04:19:24;;;;;;;3.25;1.95;;;22.00;53.20;;;;;;5038468;28;20132;-58
2022/06/13 04:22:02;;;;;;;4.05;2.20;;;22.00;53.10;;;;;;5041301;28;20045;-61
2022/06/13 04:24:34;;;;;;;4.03;2.17;;;22.00;53.10;;;;;;5062349;28;20045;-61
2022/06/13 04:27:21;;;;;;;2.55;1.98;;;22.00;53.10;;;;;;5055236;28;20425;-58
2022/06/13 04:30:00;;;;;;;4.00;1.95;;;22.00;53.10;;;;;;5056747;28;20076;-58
2022/06/13 04:32:37;;;;;;;3.47;2.05;;;22.00;53.20;;;;;;5055044;28;20037;-58
2022/06/13 04:35:04;;;;;;;2.83;2.13;;;22.00;53.20;;;;;;5056504;28;20083;-58
2022/06/13 04:37:30;;;;;;;4.80;2.20;;;22.00;53.20;;;;;;5055969;28;20036;-58
2022/06/13 04:40:01;;;;;;;4.25;1.92;;;22.00;53.30;;;;;;5054943;28;20032;-58
2022/06/13 04:42:33;;;;;;;3.50;1.95;;;22.00;53.30;;;;;;5056003;28;20041;-58
2022/06/13 04:45:03;;;;;;;3.83;2.30;;;22.00;53.30;;;;;;5054804;28;20397;-57
2022/06/13 04:47:29;;;;;;;3.60;2.47;;;22.00;53.30;;;;;;5057873;28;20119;-57
2022/06/13 04:49:57;;;;;;;3.40;1.88;;;22.00;53.30;;;;;;5057462;28;20142;-59
2022/06/13 04:52:29;;;;;;;3.20;2.10;;;22.00;53.30;;;;;;5060114;28;20551;-61
2022/06/13 04:55:00;;;;;;;4.55;2.13;;;22.00;53.30;;;;;;5056933;28;20040;-58
2022/06/13 04:57:28;;;;;;;3.63;2.05;;;22.00;53.30;;;;;;5057524;28;20036;-58
2022/06/13 04:59:54;;;;;;;4.68;2.40;;;22.00;53.40;;;;;;5055964;28;20044;-61
2022/06/13 05:02:24;;;;;;;3.05;2.38;;;22.00;53.40;;;;;;5055566;28;20040;-60
2022/06/13 05:04:51;;;;;;;4.35;2.20;;;22.00;53.40;;;;;;5055480;28;20032;-58
2022/06/13 05:07:21;;;;;;;4.70;2.10;;;22.00;53.50;;;;;;5058252;28;20381;-60
2022/06/13 05:09:54;;;;;;;3.58;2.30;;;22.00;54.20;;;;;;5056480;28;20105;-57
2022/06/13 05:12:19;;;;;;;3.97;2.35;;;22.00;53.50;;;;;;5055553;28;20364;-59
2022/06/13 05:14:51;;;;;;;2.95;2.33;;;22.00;53.50;;;;;;5051526;28;20059;-57
2022/06/13 05:17:25;;;;;;;4.63;2.30;;;22.00;53.50;;;;;;5051917;28;20616;-60
2022/06/13 05:20:11;;;;;;;4.50;2.38;;;22.00;54.30;;;;;;5052959;28;20471;-57
2022/06/13 05:22:37;;;;;;;4.55;2.40;;;22.00;53.60;;;;;;5050563;28;20063;-58
2022/06/13 05:25:21;;;;;;;4.70;2.30;;;21.90;53.60;;;;;;5053485;28;20053;-58
2022/06/13 05:27:46;;;;;;;3.88;2.13;;;22.00;53.60;;;;;;5054390;28;20044;-59
2022/06/13 05:30:16;;;;;;;3.45;2.10;;;22.00;53.70;;;;;;5055739;28;20028;-57
2022/06/13 05:32:42;;;;;;;3.28;2.00;;;21.90;53.60;;;;;;5054787;28;20063;-59
2022/06/13 05:35:17;;;;;;;2.95;1.98;;;22.00;53.60;;;;;;5053381;28;20025;-59
2022/06/13 05:37:43;;;;;;;3.90;2.17;;;22.00;53.60;;;;;;5055058;28;20060;-59
2022/06/13 05:40:17;;;;;;;2.28;1.92;;;22.00;53.70;;;;;;5054161;28;20155;-59
2022/06/13 05:42:43;;;;;;;3.72;2.30;;;22.00;53.60;;;;;;5054141;28;20040;-58
2022/06/13 05:45:13;;;;;;;3.92;2.30;;;22.00;53.50;;;;;;5053832;28;20036;-58
2022/06/13 05:47:41;;;;;;;5.50;2.03;;;21.90;53.50;;;;;;5052992;28;20066;-58
2022/06/13 05:50:12;;;;;;;4.43;2.10;;;22.00;53.50;;;;;;5056139;28;20041;-58
2022/06/13 05:52:38;;;;;;;3.88;2.08;;;21.90;53.40;;;;;;5049833;28;20174;-58
2022/06/13 05:55:04;;;;;;;4.55;1.67;;;21.90;53.50;;;;;;5051123;28;20152;-58
2022/06/13 05:57:30;;;;;;;4.55;1.80;;;21.90;52.80;;;;;;5053265;28;20041;-59
2022/06/13 05:59:55;;;;;;;2.67;1.80;;;21.90;52.30;;;;;;5051437;28;20529;-60
2022/06/13 06:02:21;;;;;;;3.72;2.05;;;21.90;51.70;;;;;;5052010;28;20262;-59
2022/06/13 06:04:46;;;;;;;3.78;1.90;;;21.90;51.70;;;;;;5053787;28;20036;-59
2022/06/13 06:07:12;;;;;;;5.80;1.70;;;21.90;51.80;;;;;;5054134;28;20032;-58
2022/06/13 06:09:38;;;;;;;4.75;2.00;;;21.90;51.70;;;;;;5052803;28;22044;-60
2022/06/13 06:12:04;;;;;;;3.50;1.83;;;21.90;51.60;;;;;;5053141;28;20477;-59
2022/06/13 06:14:29;;;;;;;4.20;1.98;;;21.90;51.40;;;;;;5054389;28;20071;-58
2022/06/13 06:16:55;;;;;;;5.57;1.95;;;21.90;51.30;;;;;;5054098;28;20538;-58
2022/06/13 06:19:22;;;;;;;4.55;2.05;;;21.90;51.30;;;;;;5053332;28;20091;-60
2022/06/13 06:21:48;;;;;;;3.97;1.52;;;21.90;51.20;;;;;;5052950;28;20539;-58
2022/06/13 06:24:13;;;;;;;8.65;1.80;;;21.90;51.30;;;;;;5052913;28;20136;-59
2022/06/13 06:26:39;;;;;;;4.55;1.38;;;21.90;51.00;;;;;;5053786;28;20071;-57
2022/06/13 06:29:04;;;;;;;4.03;1.70;;;21.90;51.10;;;;;;5050955;28;20457;-60
2022/06/13 06:31:32;;;;;;;7.13;1.77;;;21.80;50.80;;;;;;5052135;28;20220;-58
2022/06/13 06:33:58;;;;;;;4.72;1.73;;;21.90;50.90;;;;;;5048916;28;20110;-58
2022/06/13 06:36:23;;;;;;;4.13;1.50;;;21.90;50.60;;;;;;5050623;28;20489;-61
2022/06/13 06:38:49;;;;;;;4.30;1.70;;;21.80;50.30;;;;;;5052894;28;20093;-60
2022/06/13 06:41:15;;;;;;;3.53;1.63;;;21.80;50.10;;;;;;5059874;28;20045;-65
2022/06/13 06:43:42;;;;;;;5.50;1.85;;;21.80;50.00;;;;;;5054839;28;20110;-60
2022/06/13 06:46:08;;;;;;;5.32;1.52;;;21.70;49.60;;;;;;5052185;28;20110;-60
2022/06/13 06:48:36;;;;;;;4.55;1.80;;;21.70;50.00;;;;;;5050654;28;20036;-61
2022/06/13 06:51:09;;;;;;;3.45;1.65;;;21.70;49.90;;;;;;5052347;28;20033;-60
2022/06/13 07:01:48;;;;;;;6.55;1.38;;;21.70;50.20;;;;;;5056260;28;20052;-60
2022/06/13 07:04:14;;;;;;;6.45;1.90;;;21.70;50.30;;;;;;5055715;28;20052;-60
2022/06/13 07:06:40;;;;;;;5.30;1.50;;;21.70;50.40;;;;;;5055938;28;20051;-60
2022/06/13 07:09:06;;;;;;;2.88;1.50;;;21.70;50.50;;;;;;5058058;28;20036;-61
2022/06/13 07:14:18;;;;;;;2.20;1.27;;;21.70;50.70;;;;;;5056335;28;20052;-60
2022/06/13 07:16:43;;;;;;;3.47;1.27;;;21.70;50.70;;;;;;5054944;28;20043;-61
2022/06/13 07:19:09;;;;;;;4.53;1.25;;;21.70;50.70;;;;;;5056336;28;20052;-61
2022/06/13 07:21:35;;;;;;;3.20;1.60;;;21.70;50.80;;;;;;5055236;28;20056;-60
2022/06/13 07:24:00;;;;;;;6.68;1.77;;;21.70;50.90;;;;;;5055266;28;20124;-61
2022/06/13 07:26:26;;;;;;;5.40;1.63;;;21.80;51.00;;;;;;5054260;28;20031;-62
2022/06/13 07:28:52;;;;;;;2.95;1.33;;;21.80;51.00;;;;;;5054044;28;20101;-62
2022/06/13 07:31:21;;;;;;;2.78;1.23;;;21.80;51.10;;;;;;5056377;28;20053;-61
2022/06/13 07:33:48;;;;;;;3.92;1.38;;;21.80;51.20;;;;;;5054371;28;20159;-61
2022/06/13 07:36:16;;;;;;;4.85;1.65;;;21.80;51.20;;;;;;5055458;28;20047;-60
2022/06/13 07:38:41;;;;;;;2.40;1.30;;;21.80;51.30;;;;;;5054570;28;20447;-61
2022/06/13 07:41:15;;;;;;;2.53;1.08;;;21.80;51.40;;;;;;5057610;28;20040;-60
2022/06/13 07:43:41;;;;;;;3.47;1.17;;;21.80;51.50;;;;;;5054082;28;20127;-60
2022/06/13 07:46:07;;;;;;;4.40;1.30;;;21.80;51.60;;;;;;5055999;28;20121;-60
2022/06/13 07:48:33;;;;;;;2.90;1.33;;;21.80;51.80;;;;;;5054128;28;21141;-60
2022/06/13 07:51:00;;;;;;;4.40;1.35;;;21.80;51.80;;;;;;5054803;28;20045;-62
2022/06/13 07:53:25;;;;;;;3.30;1.25;;;21.80;51.80;;;;;;5055289;28;20036;-60
2022/06/13 07:55:51;;;;;;;1.50;0.95;;;21.80;51.80;;;;;;5055480;28;20099;-60
2022/06/13 07:58:26;;;;;;;2.80;1.30;;;21.70;51.90;;;;;;5055556;28;20040;-62
2022/06/13 08:00:52;;;;;;;2.35;0.80;;;21.80;52.00;;;;;;5053734;28;20067;-60
2022/06/13 08:03:23;;;;;;;3.15;0.98;;;21.80;52.00;;;;;;5054230;28;20049;-61
2022/06/13 08:05:50;;;;;;;2.20;1.10;;;21.80;52.10;;;;;;5054016;28;20033;-61
2022/06/13 08:08:16;;;;;;;4.00;1.13;;;21.80;52.20;;;;;;5051945;28;20047;-60
2022/06/13 08:10:43;;;;;;;3.10;1.27;;;21.80;52.20;;;;;;5054146;28;20045;-63
2022/06/13 08:13:13;;;;;;;2.05;1.02;;;21.80;52.30;;;;;;5055610;28;20041;-60
2022/06/13 08:15:39;;;;;;;3.67;1.17;;;21.80;52.40;;;;;;5054100;28;20267;-61
2022/06/13 08:18:05;;;;;;;3.53;1.20;;;21.80;52.40;;;;;;5055619;28;20043;-61
2022/06/13 08:20:32;;;;;;;4.53;1.38;;;21.80;52.40;;;;;;5056268;28;20520;-62
2022/06/13 08:23:00;;;;;;;3.83;1.15;;;21.80;52.60;;;;;;5056735;28;20055;-58
2022/06/13 08:25:29;;;;;;;2.20;1.00;;;21.80;52.90;;;;;;5057313;28;20048;-60
2022/06/13 08:27:56;;;;;;;1.77;0.75;;;21.80;52.90;;;;;;5052948;28;20037;-63
2022/06/13 08:30:23;;;;;;;2.70;1.17;;;21.80;52.80;;;;;;5054862;28;20063;-62
2022/06/13 08:32:49;;;;;;;2.10;1.05;;;21.80;52.80;;;;;;5052786;28;20068;-61
2022/06/13 08:35:15;;;;;;;3.80;1.25;;;21.80;52.70;;;;;;5055620;28;20099;-61
2022/06/13 08:37:41;;;;;;;4.20;0.93;;;21.80;52.70;;;;;;5055356;28;20033;-62
2022/06/13 08:40:09;;;;;;;2.63;1.38;;;21.80;52.90;;;;;;5053559;28;20110;-62
2022/06/13 08:42:41;;;;;;;2.10;1.08;;;21.80;52.90;;;;;;5053190;28;20048;-64
2022/06/13 08:45:24;;;;;;;6.28;1.15;;;21.80;52.90;;;;;;5054939;28;20032;-61
2022/06/13 08:48:18;;;;;;;6.47;1.15;;;21.80;52.90;;;;;;5053907;28;20049;-62
2022/06/13 08:50:54;;;;;;;3.75;1.10;;;21.80;53.10;;;;;;5050791;28;20049;-60
2022/06/13 08:53:24;;;;;;;4.68;1.33;;;21.80;53.10;;;;;;5054952;28;20044;-61
2022/06/13 08:55:59;;;;;;;4.40;1.20;;;21.70;53.10;;;;;;5056052;28;20044;-61
2022/06/13 08:58:30;;;;;;;3.22;0.98;;;21.80;53.20;;;;;;5056041;28;20040;-61
2022/06/13 09:01:09;;;;;;;3.90;1.23;;;21.80;53.30;;;;;;5053018;28;20037;-60
2022/06/13 09:03:48;;;;;;;2.78;1.10;;;21.80;53.50;;;;;;5053354;28;20137;-60
2022/06/13 09:06:22;;;;;;;6.05;1.10;;;21.80;53.60;;;;;;5054422;28;20053;-62
2022/06/13 09:09:09;;;;;;;1.85;0.80;;;21.80;53.60;;;;;;5055211;28;20041;-60
2022/06/13 09:12:07;;;;;;;2.90;0.88;;;21.80;53.60;;;;;;5055980;28;20063;-60
2022/06/13 09:14:39;;;;;;;4.70;1.27;;;21.80;53.40;;;;;;5041464;28;20078;-62
2022/06/13 09:17:23;;;;;;;5.22;1.08;;;21.80;53.40;;;;;;5052373;28;20049;-61
2022/06/13 09:19:59;;;;;;;3.92;1.17;;;21.80;53.20;;;;;;5056780;28;20622;-60
2022/06/13 09:22:34;;;;;;;4.13;1.20;;;21.80;53.10;;;;;;5055674;28;20520;-65
2022/06/13 09:25:27;;;;;;;4.57;1.45;;;21.80;53.00;;;;;;5053580;28;20103;-63
2022/06/13 09:27:58;;;;;;;2.38;0.95;;;21.80;52.80;;;;;;5054835;28;20041;-60
2022/06/13 09:30:41;;;;;;;3.50;1.10;;;21.80;52.90;;;;;;5051434;28;20043;-62
2022/06/13 09:33:30;;;;;;;1.73;0.80;;;21.80;52.60;;;;;;5046608;28;20112;-60
2022/06/13 09:36:33;;;;;;;4.93;1.13;;;21.80;52.50;;;;;;5053876;28;20506;-61
2022/06/13 09:39:04;;;;;;;2.72;1.00;;;21.80;52.40;;;;;;5058411;28;20045;-62
2022/06/13 09:41:30;;;;;;;;;;;21.80;52.20;;;;;;5056885;28;20067;-60
2022/06/13 09:44:26;;;;;;;2.65;0.70;;;21.80;52.10;;;;;;5058057;28;20388;-62
2022/06/13 09:47:00;;;;;;;6.80;1.10;;;21.80;52.10;;;;;;5051715;28;20374;-62
2022/06/13 09:50:04;;;;;;;2.97;0.85;;;21.70;52.00;;;;;;5049082;28;20044;-63
2022/06/13 09:52:38;;;;;;;4.35;1.38;;;21.80;52.00;;;;;;5056781;28;20040;-60
2022/06/13 09:55:21;;;;;;;5.32;1.05;;;21.80;51.80;;;;;;5049963;28;20040;-61
2022/06/13 09:57:59;;;;;;;2.38;0.93;;;21.80;52.00;;;;;;5054358;28;20056;-63
2022/06/13 10:00:45;;;;;;;3.40;0.93;;;21.80;52.20;;;;;;5050727;28;20042;-63
2022/06/13 10:03:19;;;;;;;3.38;0.85;;;21.80;52.30;;;;;;5052955;28;20049;-60
2022/06/13 10:05:52;;;;;;;8.48;1.35;;;21.80;52.50;;;;;;5052892;28;20125;-60
2022/06/13 10:08:23;;;;;;;3.58;0.95;;;21.80;52.50;;;;;;5052383;28;20037;-61
2022/06/13 10:11:15;;;;;;;2.63;0.80;;;21.80;52.40;;;;;;5053018;28;20029;-63
2022/06/13 10:13:52;;;;;;;3.33;1.20;;;21.80;52.20;;;;;;5051825;28;20424;-61
2022/06/13 10:16:57;;;;;;;2.55;0.90;;;21.90;52.00;;;;;;5053076;28;20051;-63
2022/06/13 10:19:22;;;;;;;3.22;0.90;;;21.90;51.30;;;;;;5051709;28;20045;-60
2022/06/13 10:22:09;;;;;;;3.70;1.08;;;21.90;51.20;;;;;;5052889;28;20052;-61
2022/06/13 10:25:12;;;;;;;3.00;0.90;;;21.90;51.10;;;;;;5052966;28;20129;-61
2022/06/13 10:27:41;;;;;;;3.65;1.15;;;21.90;51.00;;;;;;5036677;28;20101;-64
2022/06/13 10:30:19;;;;;;;4.00;1.00;;;21.90;51.00;;;;;;5051145;28;20489;-61
2022/06/13 10:32:59;;;;;;;1.73;0.85;;;21.90;50.90;;;;;;5052035;28;20047;-61
2022/06/13 10:35:49;;;;;;;3.90;1.20;;;21.80;50.70;;;;;;5052844;28;20047;-64
2022/06/13 10:38:52;;;;;;;4.82;1.00;;;21.90;50.20;;;;;;5052678;28;20054;-61
2022/06/13 10:41:18;;;;;;;3.47;0.95;;;21.90;49.90;;;;;;5054292;28;20068;-60
2022/06/13 10:43:44;;;;;;;2.70;0.95;;;21.80;50.10;;;;;;5052194;28;20520;-61
2022/06/13 10:46:16;;;;;;;2.83;0.90;;;21.80;50.10;;;;;;5054181;28;20475;-61
2022/06/13 10:48:50;;;;;;;2.10;0.80;;;21.80;50.10;;;;;;5050381;28;20037;-61
2022/06/13 10:51:16;;;;;;;3.10;1.10;;;21.80;49.90;;;;;;5053601;28;20124;-62
2022/06/13 10:54:07;;;;;;;4.78;1.08;;;21.80;49.90;;;;;;5051285;28;20044;-61
2022/06/13 10:56:49;;;;;;;4.68;1.00;;;21.80;49.70;;;;;;5048515;28;20063;-61
2022/06/13 10:59:30;;;;;;;2.42;1.20;;;21.80;50.00;;;;;;5051264;28;20041;-61
2022/06/13 11:01:58;;;;;;;;;;;21.80;50.00;;;;;;5052051;28;20029;-63
2022/06/13 11:04:24;;;;;;;2.78;0.80;;;21.80;50.00;;;;;;5052559;28;20012;-60
2022/06/13 11:06:53;;;;;;;2.70;0.88;;;21.80;50.40;;;;;;5054346;28;20111;-62
2022/06/13 11:09:33;;;;;;;2.53;0.80;;;21.80;50.30;;;;;;5052741;28;20494;-62
2022/06/13 11:12:03;;;;;;;2.53;1.05;;;21.80;50.10;;;;;;5052951;28;20099;-61
2022/06/13 11:14:37;;;;;;;4.35;1.20;;;21.80;50.00;;;;;;5052292;28;20056;-61
2022/06/13 11:22:40;;;;;;;5.30;1.25;;;21.80;49.60;;;;;;5052763;28;20068;-61
2022/06/13 11:25:17;;;;;;;2.97;1.00;;;21.80;49.40;;;;;;5047933;28;20045;-61
2022/06/13 11:27:47;;;;;;;3.75;1.15;;;21.80;49.40;;;;;;5051509;28;20047;-60
2022/06/13 11:30:34;;;;;;;3.93;1.03;;;21.80;49.30;;;;;;5066921;28;20177;-61
2022/06/13 11:33:03;;;;;;;4.18;1.25;;;21.80;49.40;;;;;;5050471;28;20052;-61
2022/06/13 11:35:30;;;;;;;3.83;1.10;;;21.80;49.40;;;;;;5051977;28;20037;-60
2022/06/13 11:38:14;;;;;;;3.15;0.98;;;21.80;49.30;;;;;;5052361;28;20139;-64
2022/06/13 11:40:41;;;;;;;4.50;1.30;;;21.80;49.40;;;;;;5052354;28;20040;-61
2022/06/13 11:43:23;;;;;;;3.60;1.10;;;21.80;49.40;;;;;;5050833;28;20052;-63
2022/06/13 11:45:58;;;;;;;3.28;1.10;;;21.90;49.50;;;;;;5057367;28;20031;-60
2022/06/13 11:48:26;;;;;;;2.60;0.95;;;21.80;49.30;;;;;;5054940;28;20048;-63
2022/06/13 11:51:01;;;;;;;3.15;1.20;;;21.80;49.40;;;;;;5055933;28;20040;-60
2022/06/13 11:53:36;;;;;;;3.92;1.20;;;21.80;49.40;;;;;;5062297;28;20090;-60
2022/06/13 11:56:21;;;;;;;4.57;1.33;;;21.80;49.40;;;;;;5055617;28;20041;-61
2022/06/13 11:58:49;;;;;;;3.83;1.20;;;21.80;49.20;;;;;;5057214;28;20051;-63
2022/06/13 12:01:31;;;;;;;3.00;0.88;;;21.80;49.30;;;;;;5055590;28;20097;-61
2022/06/13 12:03:59;;;;;;;2.65;1.10;;;21.80;49.20;;;;;;5055419;28;20052;-62
2022/06/13 12:06:26;;;;;;;3.10;0.98;;;21.90;49.20;;;;;;5055382;28;20055;-60
2022/06/13 12:09:03;;;;;;;2.80;1.10;;;21.80;49.20;;;;;;5055425;28;20095;-61
2022/06/13 12:11:29;;;;;;;2.65;0.80;;;21.80;49.20;;;;;;5056068;28;20037;-64
2022/06/13 12:13:58;;;;;;;2.60;1.00;;;21.90;49.20;;;;;;5055109;28;20094;-61
2022/06/13 12:16:46;;;;;;;3.10;0.82;;;21.80;49.20;;;;;;5054622;28;20051;-62
2022/06/13 12:19:35;;;;;;;4.00;1.10;;;21.90;49.20;;;;;;5053959;28;20052;-61
2022/06/13 12:22:19;;;;;;;2.55;1.00;;;21.90;49.00;;;;;;5052610;28;20063;-64
2022/06/13 12:25:09;;;;;;;4.60;1.00;;;21.90;49.10;;;;;;5057178;28;20495;-63
2022/06/13 12:27:56;;;;;;;2.80;1.40;;;21.80;48.40;;;;;;5056000;28;20127;-62
2022/06/13 12:30:33;;;;;;;2.53;1.00;;;21.80;48.70;;;;;;5058512;28;20638;-61
2022/06/13 12:33:09;;;;;;;3.05;1.17;;;21.80;48.80;;;;;;5056887;28;20040;-58
2022/06/13 12:35:59;;;;;;;2.83;1.27;;;21.80;48.80;;;;;;5055417;28;20155;-59
2022/06/13 12:38:31;;;;;;;4.97;1.13;;;21.80;48.90;;;;;;5056764;28;20063;-57
2022/06/13 12:41:24;;;;;;;5.10;1.30;;;21.80;48.80;;;;;;5057588;28;20123;-63
2022/06/13 12:44:07;;;;;;;4.00;0.95;;;21.80;48.90;;;;;;5056168;28;20045;-60
2022/06/13 12:46:57;;;;;;;3.80;1.40;;;21.80;48.70;;;;;;5054290;28;20452;-59
2022/06/13 12:49:51;;;;;;;3.47;1.13;;;21.80;48.70;;;;;;5054633;28;20052;-61
2022/06/13 12:52:40;;;;;;;3.20;1.20;;;21.80;48.80;;;;;;5052882;28;20056;-60
2022/06/13 12:55:31;;;;;;;4.47;1.77;;;21.80;48.90;;;;;;5048887;28;20041;-60
2022/06/13 12:58:45;;;;;;;3.88;1.00;;;21.80;48.90;;;;;;5053171;28;20044;-60
2022/06/13 13:01:20;;;;;;;2.30;0.82;;;21.80;48.90;;;;;;5030824;28;20104;-58
2022/06/13 13:04:08;;;;;;;5.68;1.27;;;21.80;49.10;;;;;;5031583;28;20949;-61
2022/06/13 13:06:46;;;;;;;4.53;1.30;;;21.80;49.30;;;;;;5049445;28;20052;-60
2022/06/13 13:09:46;;;;;;;3.15;0.90;;;21.90;49.50;;;;;;5053235;28;20067;-59
2022/06/13 13:12:30;;;;;;;5.22;1.30;;;21.90;49.60;;;;;;5051438;28;20040;-60
2022/06/13 13:15:23;;;;;;;3.47;1.08;;;21.90;49.70;;;;;;5056241;28;20583;-59
2022/06/13 13:17:54;;;;;;;4.15;1.35;;;21.90;49.80;;;;;;5034479;28;20048;-60
2022/06/13 13:20:44;;;;;;;5.10;2.00;;;21.90;50.00;;;;;;5055100;28;20043;-60
2022/06/13 13:23:39;;;;;;;4.55;1.40;;;21.90;50.40;;;;;;5056577;28;20458;-58
2022/06/13 13:26:11;;;;;;;4.13;1.48;;;21.90;50.60;;;;;;5054934;28;20049;-60
2022/06/13 13:28:55;;;;;;;4.18;1.40;;;21.90;50.80;;;;;;5056404;28;20072;-59
2022/06/13 13:31:37;;;;;;;4.50;1.60;;;21.90;51.10;;;;;;5051938;28;20140;-61
2022/06/13 13:34:03;;;;;;;4.68;1.20;;;21.90;51.10;;;;;;5056084;28;20116;-59
2022/06/13 13:36:57;;;;;;;2.78;1.40;;;21.90;51.10;;;;;;5051533;28;20552;-59
2022/06/13 13:39:40;;;;;;;5.93;1.85;;;21.90;51.20;;;;;;5054429;28;20041;-59
2022/06/13 13:42:15;;;;;;;5.25;1.65;;;21.90;51.30;;;;;;5052560;28;20040;-60
2022/06/13 13:45:08;;;;;;;5.40;1.13;;;21.90;51.30;;;;;;5054181;28;20161;-59